sensor_id;sensor_type;location;lat;lon;timestamp;pressure;altitude;pressure_sealevel;temperature;humidity
64967;BME280;51710;38.732;-121.358;2023-01-01T00:01:05;99891.75;;;10.34;100.00
64967;BME280;51710;38.732;-121.358;2023-01-01T00:03:32;99896.28;;;10.34;100.00
64967;BME280;51710;38.732;-121.358;2023-01-01T00:05:58;99888.13;;;10.35;100.00
64967;BME280;51710;38.732;-121.358;2023-01-01T00:08:24;99879.94;;;10.37;100.00
64967;BME280;51710;38.732;-121.358;2023-01-01T00:10:51;99861.69;;;10.34;100.00
64967;BME280;51710;38.732;-121.358;2023-01-01T00:13:17;99852.69;;;10.35;100.00
64967;BME280;51710;38.732;-121.358;2023-01-01T00:15:43;99838.53;;;10.34;100.00
64967;BME280;51710;38.732;-121.358;2023-01-01T00:18:09;99840.03;;;10.37;100.00
64967;BME280;51710;38.732;-121.358;2023-01-01T00:20:36;99836.53;;;10.36;100.00
64967;BME280;51710;38.732;-121.358;2023-01-01T00:23:03;99851.34;;;10.39;100.00
64967;BME280;51710;38.732;-121.358;2023-01-01T00:25:29;99845.16;;;10.38;100.00
64967;BME280;51710;38.732;-121.358;2023-01-01T00:27:57;99839.84;;;10.38;100.00
64967;BME280;51710;38.732;-121.358;2023-01-01T00:30:23;99847.19;;;10.36;100.00
64967;BME280;51710;38.732;-121.358;2023-01-01T00:32:49;99844.69;;;10.35;100.00
64967;BME280;51710;38.732;-121.358;2023-01-01T00:35:16;99841.75;;;10.30;100.00
64967;BME280;51710;38.732;-121.358;2023-01-01T00:37:43;99838.59;;;10.26;100.00
64967;BME280;51710;38.732;-121.358;2023-01-01T00:40:10;99838.78;;;10.25;100.00
64967;BME280;51710;38.732;-121.358;2023-01-01T00:42:37;99840.63;;;10.24;100.00
64967;BME280;51710;38.732;-121.358;2023-01-01T00:45:06;99850.78;;;10.20;100.00
64967;BME280;51710;38.732;-121.358;2023-01-01T00:47:33;99835.19;;;10.17;100.00
64967;BME280;51710;38.732;-121.358;2023-01-01T00:50:00;99838.03;;;10.16;100.00
64967;BME280;51710;38.732;-121.358;2023-01-01T00:52:26;99831.56;;;10.10;100.00
64967;BME280;51710;38.732;-121.358;2023-01-01T00:54:52;99829.56;;;10.04;100.00
64967;BME280;51710;38.732;-121.358;2023-01-01T00:57:19;99814.16;;;10.00;100.00
64967;BME280;51710;38.732;-121.358;2023-01-01T00:59:45;99825.16;;;9.97;100.00
64967;BME280;51710;38.732;-121.358;2023-01-01T01:02:12;99820.16;;;9.94;100.00
64967;BME280;51710;38.732;-121.358;2023-01-01T01:04:38;99838.13;;;9.92;100.00
64967;BME280;51710;38.732;-121.358;2023-01-01T01:07:05;99830.50;;;9.89;100.00
64967;BME280;51710;38.732;-121.358;2023-01-01T01:09:31;99818.22;;;9.88;100.00
64967;BME280;51710;38.732;-121.358;2023-01-01T01:11:58;99801.25;;;9.89;100.00
64967;BME280;51710;38.732;-121.358;2023-01-01T01:14:24;99784.63;;;9.87;100.00
64967;BME280;51710;38.732;-121.358;2023-01-01T01:16:50;99751.06;;;9.86;100.00
64967;BME280;51710;38.732;-121.358;2023-01-01T01:19:17;99754.09;;;9.83;100.00
64967;BME280;51710;38.732;-121.358;2023-01-01T01:21:44;99731.34;;;9.80;100.00
64967;BME280;51710;38.732;-121.358;2023-01-01T01:24:12;99736.84;;;9.79;100.00
64967;BME280;51710;38.732;-121.358;2023-01-01T01:26:38;99749.47;;;9.77;100.00
64967;BME280;51710;38.732;-121.358;2023-01-01T01:29:04;99754.78;;;9.77;100.00
64967;BME280;51710;38.732;-121.358;2023-01-01T01:31:32;99765.25;;;9.78;100.00
64967;BME280;51710;38.732;-121.358;2023-01-01T01:34:00;99780.22;;;9.79;100.00
64967;BME280;51710;38.732;-121.358;2023-01-01T01:36:27;99790.84;;;9.79;100.00
64967;BME280;51710;38.732;-121.358;2023-01-01T01:38:53;99795.97;;;9.81;100.00
64967;BME280;51710;38.732;-121.358;2023-01-01T01:41:22;99801.31;;;9.81;100.00
64967;BME280;51710;38.732;-121.358;2023-01-01T01:46:40;99806.63;;;9.81;100.00
64967;BME280;51710;38.732;-121.358;2023-01-01T01:49:26;99816.22;;;9.82;100.00
64967;BME280;51710;38.732;-121.358;2023-01-01T01:51:53;99815.75;;;9.78;100.00
64967;BME280;51710;38.732;-121.358;2023-01-01T01:54:23;99810.63;;;9.77;100.00
64967;BME280;51710;38.732;-121.358;2023-01-01T01:56:58;99812.28;;;9.78;100.00
64967;BME280;51710;38.732;-121.358;2023-01-01T01:59:31;99805.66;;;9.74;100.00
64967;BME280;51710;38.732;-121.358;2023-01-01T02:01:59;99820.94;;;9.72;100.00
64967;BME280;51710;38.732;-121.358;2023-01-01T02:04:26;99816.00;;;9.69;100.00
64967;BME280;51710;38.732;-121.358;2023-01-01T02:06:53;99824.13;;;9.67;100.00
64967;BME280;51710;38.732;-121.358;2023-01-01T02:09:20;99835.09;;;9.64;100.00
64967;BME280;51710;38.732;-121.358;2023-01-01T02:11:47;99830.50;;;9.58;100.00
64967;BME280;51710;38.732;-121.358;2023-01-01T02:14:14;99834.47;;;9.54;100.00
64967;BME280;51710;38.732;-121.358;2023-01-01T02:16:51;99841.97;;;9.51;100.00
64967;BME280;51710;38.732;-121.358;2023-01-01T02:24:58;99856.97;;;9.36;100.00
64967;BME280;51710;38.732;-121.358;2023-01-01T02:28:00;99864.28;;;9.34;100.00
64967;BME280;51710;38.732;-121.358;2023-01-01T02:30:33;99841.88;;;9.28;100.00
64967;BME280;51710;38.732;-121.358;2023-01-01T02:33:04;99852.69;;;9.27;100.00
64967;BME280;51710;38.732;-121.358;2023-01-01T02:35:44;99838.75;;;9.25;100.00
64967;BME280;51710;38.732;-121.358;2023-01-01T02:38:25;99834.44;;;9.24;100.00
64967;BME280;51710;38.732;-121.358;2023-01-01T02:41:15;99841.75;;;9.22;100.00
64967;BME280;51710;38.732;-121.358;2023-01-01T02:43:45;99836.44;;;9.22;100.00
64967;BME280;51710;38.732;-121.358;2023-01-01T02:46:11;99844.41;;;9.22;100.00
64967;BME280;51710;38.732;-121.358;2023-01-01T03:07:58;99864.31;;;9.18;100.00
64967;BME280;51710;38.732;-121.358;2023-01-01T03:10:56;99877.59;;;9.18;100.00
64967;BME280;51710;38.732;-121.358;2023-01-01T03:16:09;99866.00;;;9.19;100.00
64967;BME280;51710;38.732;-121.358;2023-01-01T03:18:43;99886.91;;;9.22;100.00
64967;BME280;51710;38.732;-121.358;2023-01-01T03:21:15;99887.25;;;9.19;100.00
64967;BME280;51710;38.732;-121.358;2023-01-01T03:23:49;99904.16;;;9.18;100.00
64967;BME280;51710;38.732;-121.358;2023-01-01T03:26:20;99896.19;;;9.18;100.00
64967;BME280;51710;38.732;-121.358;2023-01-01T03:28:55;99914.13;;;9.16;100.00
64967;BME280;51710;38.732;-121.358;2023-01-01T03:31:24;99915.97;;;9.15;100.00
64967;BME280;51710;38.732;-121.358;2023-01-01T03:34:08;99926.72;;;9.13;100.00
64967;BME280;51710;38.732;-121.358;2023-01-01T03:36:41;99930.41;;;9.13;100.00
64967;BME280;51710;38.732;-121.358;2023-01-01T03:39:19;99925.09;;;9.13;100.00
64967;BME280;51710;38.732;-121.358;2023-01-01T03:44:59;99947.47;;;9.10;100.00
64967;BME280;51710;38.732;-121.358;2023-01-01T03:47:28;99937.03;;;9.08;100.00
64967;BME280;51710;38.732;-121.358;2023-01-01T03:49:56;99952.97;;;9.08;100.00
64967;BME280;51710;38.732;-121.358;2023-01-01T03:55:47;99979.53;;;9.00;100.00
64967;BME280;51710;38.732;-121.358;2023-01-01T03:58:13;99997.13;;;9.01;100.00
64967;BME280;51710;38.732;-121.358;2023-01-01T04:00:54;100001.28;;;8.96;100.00
64967;BME280;51710;38.732;-121.358;2023-01-01T04:03:25;100013.72;;;8.95;100.00
64967;BME280;51710;38.732;-121.358;2023-01-01T04:05:52;100037.94;;;8.92;100.00
64967;BME280;51710;38.732;-121.358;2023-01-01T04:08:19;100061.69;;;8.94;100.00
64967;BME280;51710;38.732;-121.358;2023-01-01T04:10:49;100069.66;;;8.94;100.00
64967;BME280;51710;38.732;-121.358;2023-01-01T04:13:16;100085.56;;;8.94;100.00
64967;BME280;51710;38.732;-121.358;2023-01-01T04:15:43;100089.22;;;8.93;100.00
64967;BME280;51710;38.732;-121.358;2023-01-01T04:18:09;100133.88;;;8.97;100.00
64967;BME280;51710;38.732;-121.358;2023-01-01T04:20:36;100123.25;;;8.97;100.00
64967;BME280;51710;38.732;-121.358;2023-01-01T04:23:03;100119.94;;;8.95;100.00
64967;BME280;51710;38.732;-121.358;2023-01-01T04:25:29;100133.88;;;8.97;100.00
64967;BME280;51710;38.732;-121.358;2023-01-01T04:27:56;100136.38;;;8.99;100.00
64967;BME280;51710;38.732;-121.358;2023-01-01T04:30:28;100142.53;;;8.99;100.00
64967;BME280;51710;38.732;-121.358;2023-01-01T04:32:55;100160.44;;;8.97;100.00
64967;BME280;51710;38.732;-121.358;2023-01-01T04:35:22;100157.28;;;9.02;100.00
64967;BME280;51710;38.732;-121.358;2023-01-01T04:37:48;100182.34;;;8.99;100.00
64967;BME280;51710;38.732;-121.358;2023-01-01T04:40:14;100190.00;;;9.02;100.00
64967;BME280;51710;38.732;-121.358;2023-01-01T04:42:41;100171.22;;;9.04;100.00
64967;BME280;51710;38.732;-121.358;2023-01-01T04:45:08;100182.88;;;9.03;100.00
64967;BME280;51710;38.732;-121.358;2023-01-01T04:47:37;100210.91;;;9.05;100.00
64967;BME280;51710;38.732;-121.358;2023-01-01T04:50:04;100247.56;;;9.02;100.00
64967;BME280;51710;38.732;-121.358;2023-01-01T04:52:30;100220.50;;;8.98;100.00
64967;BME280;51710;38.732;-121.358;2023-01-01T04:54:56;100185.31;;;8.96;100.00
64967;BME280;51710;38.732;-121.358;2023-01-01T04:57:23;100206.03;;;8.93;100.00
64967;BME280;51710;38.732;-121.358;2023-01-01T04:59:49;100205.22;;;8.92;100.00
64967;BME280;51710;38.732;-121.358;2023-01-01T05:02:15;100232.59;;;8.93;100.00
64967;BME280;51710;38.732;-121.358;2023-01-01T05:04:41;100193.44;;;8.95;100.00
64967;BME280;51710;38.732;-121.358;2023-01-01T05:07:08;100198.59;;;8.96;100.00
64967;BME280;51710;38.732;-121.358;2023-01-01T05:09:34;100200.25;;;8.97;100.00
64967;BME280;51710;38.732;-121.358;2023-01-01T05:12:00;100203.91;;;8.96;100.00
64967;BME280;51710;38.732;-121.358;2023-01-01T05:14:27;100191.47;;;8.97;100.00
64967;BME280;51710;38.732;-121.358;2023-01-01T05:16:53;100188.63;;;8.98;100.00
64967;BME280;51710;38.732;-121.358;2023-01-01T05:19:19;100196.28;;;9.01;100.00
64967;BME280;51710;38.732;-121.358;2023-01-01T05:21:45;100187.50;;;9.01;100.00
64967;BME280;51710;38.732;-121.358;2023-01-01T05:24:13;100174.91;;;9.03;100.00
64967;BME280;51710;38.732;-121.358;2023-01-01T05:26:42;100168.41;;;9.05;100.00
64967;BME280;51710;38.732;-121.358;2023-01-01T05:29:09;100161.44;;;9.04;100.00
64967;BME280;51710;38.732;-121.358;2023-01-01T05:31:36;100135.88;;;9.03;100.00
64967;BME280;51710;38.732;-121.358;2023-01-01T05:34:03;100133.72;;;9.07;100.00
64967;BME280;51710;38.732;-121.358;2023-01-01T05:36:34;100105.34;;;9.07;100.00
64967;BME280;51710;38.732;-121.358;2023-01-01T05:39:04;100099.03;;;9.08;100.00
64967;BME280;51710;38.732;-121.358;2023-01-01T05:41:31;100100.72;;;9.09;100.00
64967;BME280;51710;38.732;-121.358;2023-01-01T05:44:02;100107.69;;;9.10;100.00
64967;BME280;51710;38.732;-121.358;2023-01-01T05:46:28;100127.94;;;9.12;100.00
64967;BME280;51710;38.732;-121.358;2023-01-01T05:48:54;100127.63;;;9.15;100.00
64967;BME280;51710;38.732;-121.358;2023-01-01T05:51:23;100160.34;;;9.23;100.00
64967;BME280;51710;38.732;-121.358;2023-01-01T05:53:50;100186.44;;;9.36;100.00
64967;BME280;51710;38.732;-121.358;2023-01-01T05:56:17;100206.72;;;9.45;100.00
64967;BME280;51710;38.732;-121.358;2023-01-01T05:58:44;100209.06;;;9.56;100.00
64967;BME280;51710;38.732;-121.358;2023-01-01T06:01:13;100209.25;;;9.62;100.00
64967;BME280;51710;38.732;-121.358;2023-01-01T06:03:40;100198.28;;;9.65;100.00
64967;BME280;51710;38.732;-121.358;2023-01-01T06:06:15;100220.56;;;9.72;100.00
64967;BME280;51710;38.732;-121.358;2023-01-01T06:08:42;100231.88;;;9.82;100.00
64967;BME280;51710;38.732;-121.358;2023-01-01T06:11:13;100232.03;;;9.89;100.00
64967;BME280;51710;38.732;-121.358;2023-01-01T06:13:39;100233.88;;;9.96;100.00
64967;BME280;51710;38.732;-121.358;2023-01-01T06:16:06;100237.72;;;10.02;100.00
64967;BME280;51710;38.732;-121.358;2023-01-01T06:18:34;100247.66;;;10.08;100.00
64967;BME280;51710;38.732;-121.358;2023-01-01T06:21:08;100245.72;;;10.18;100.00
64967;BME280;51710;38.732;-121.358;2023-01-01T06:23:35;100249.69;;;10.22;100.00
64967;BME280;51710;38.732;-121.358;2023-01-01T06:28:32;100257.38;;;10.33;100.00
64967;BME280;51710;38.732;-121.358;2023-01-01T06:31:03;100254.69;;;10.41;100.00
64967;BME280;51710;38.732;-121.358;2023-01-01T06:33:31;100256.69;;;10.47;100.00
64967;BME280;51710;38.732;-121.358;2023-01-01T06:35:57;100259.50;;;10.54;100.00
64967;BME280;51710;38.732;-121.358;2023-01-01T06:38:24;100264.97;;;10.60;100.00
64967;BME280;51710;38.732;-121.358;2023-01-01T06:41:01;100256.81;;;10.62;100.00
64967;BME280;51710;38.732;-121.358;2023-01-01T06:43:29;100267.97;;;10.65;100.00
64967;BME280;51710;38.732;-121.358;2023-01-01T06:46:18;100265.47;;;10.72;100.00
64967;BME280;51710;38.732;-121.358;2023-01-01T06:48:47;100258.97;;;10.74;100.00
64967;BME280;51710;38.732;-121.358;2023-01-01T06:51:15;100258.47;;;10.79;100.00
64967;BME280;51710;38.732;-121.358;2023-01-01T06:53:42;100261.59;;;10.90;100.00
64967;BME280;51710;38.732;-121.358;2023-01-01T06:56:09;100247.44;;;10.98;100.00
64967;BME280;51710;38.732;-121.358;2023-01-01T06:58:36;100250.41;;;11.03;100.00
64967;BME280;51710;38.732;-121.358;2023-01-01T07:01:09;100250.06;;;11.06;100.00
64967;BME280;51710;38.732;-121.358;2023-01-01T07:03:37;100245.38;;;11.08;100.00
64967;BME280;51710;38.732;-121.358;2023-01-01T07:06:04;100234.38;;;11.11;100.00
64967;BME280;51710;38.732;-121.358;2023-01-01T07:08:31;100237.22;;;11.17;100.00
64967;BME280;51710;38.732;-121.358;2023-01-01T07:10:57;100232.31;;;11.21;100.00
64967;BME280;51710;38.732;-121.358;2023-01-01T07:13:25;100239.81;;;11.25;100.00
64967;BME280;51710;38.732;-121.358;2023-01-01T07:15:52;100249.78;;;11.31;100.00
64967;BME280;51710;38.732;-121.358;2023-01-01T07:18:19;100249.09;;;11.38;100.00
64967;BME280;51710;38.732;-121.358;2023-01-01T07:20:54;100253.03;;;11.50;100.00
64967;BME280;51710;38.732;-121.358;2023-01-01T07:23:21;100232.66;;;11.57;100.00
64967;BME280;51710;38.732;-121.358;2023-01-01T07:25:49;100246.66;;;11.59;99.25
64967;BME280;51710;38.732;-121.358;2023-01-01T07:28:16;100253.50;;;11.53;98.80
64967;BME280;51710;38.732;-121.358;2023-01-01T07:30:42;100269.75;;;11.44;97.46
64967;BME280;51710;38.732;-121.358;2023-01-01T07:33:14;100275.75;;;11.38;96.55
64967;BME280;51710;38.732;-121.358;2023-01-01T07:35:44;100281.44;;;11.34;96.63
64967;BME280;51710;38.732;-121.358;2023-01-01T07:38:11;100287.44;;;11.28;97.36
64967;BME280;51710;38.732;-121.358;2023-01-01T07:40:38;100283.81;;;11.21;98.33
64967;BME280;51710;38.732;-121.358;2023-01-01T07:43:04;100280.34;;;11.13;98.90
64967;BME280;51710;38.732;-121.358;2023-01-01T07:45:31;100261.91;;;11.03;100.00
64967;BME280;51710;38.732;-121.358;2023-01-01T07:47:58;100259.25;;;10.95;99.43
64967;BME280;51710;38.732;-121.358;2023-01-01T07:50:27;100261.09;;;10.87;99.34
64967;BME280;51710;38.732;-121.358;2023-01-01T07:53:12;100256.78;;;10.78;99.72
64967;BME280;51710;38.732;-121.358;2023-01-01T07:55:38;100250.47;;;10.71;99.52
64967;BME280;51710;38.732;-121.358;2023-01-01T07:58:05;100253.66;;;10.66;99.96
64967;BME280;51710;38.732;-121.358;2023-01-01T08:00:31;100237.03;;;10.64;99.80
64967;BME280;51710;38.732;-121.358;2023-01-01T08:02:57;100246.16;;;10.62;100.00
64967;BME280;51710;38.732;-121.358;2023-01-01T08:05:24;100235.84;;;10.59;100.00
64967;BME280;51710;38.732;-121.358;2023-01-01T08:07:51;100237.06;;;10.56;100.00
64967;BME280;51710;38.732;-121.358;2023-01-01T08:10:18;100236.22;;;10.56;100.00
64967;BME280;51710;38.732;-121.358;2023-01-01T08:12:45;100246.69;;;10.57;100.00
64967;BME280;51710;38.732;-121.358;2023-01-01T08:15:13;100254.84;;;10.56;100.00
64967;BME280;51710;38.732;-121.358;2023-01-01T08:17:40;100245.69;;;10.58;100.00
64967;BME280;51710;38.732;-121.358;2023-01-01T08:20:07;100235.50;;;10.62;100.00
64967;BME280;51710;38.732;-121.358;2023-01-01T08:22:34;100243.84;;;10.67;100.00
64967;BME280;51710;38.732;-121.358;2023-01-01T08:25:00;100248.00;;;10.69;100.00
64967;BME280;51710;38.732;-121.358;2023-01-01T08:27:26;100231.16;;;10.69;100.00
64967;BME280;51710;38.732;-121.358;2023-01-01T08:29:53;100235.34;;;10.71;100.00
64967;BME280;51710;38.732;-121.358;2023-01-01T08:32:19;100243.34;;;10.71;100.00
64967;BME280;51710;38.732;-121.358;2023-01-01T08:34:45;100243.34;;;10.71;100.00
64967;BME280;51710;38.732;-121.358;2023-01-01T08:37:14;100242.31;;;10.72;100.00
64967;BME280;51710;38.732;-121.358;2023-01-01T08:39:41;100237.84;;;10.73;100.00
64967;BME280;51710;38.732;-121.358;2023-01-01T08:42:13;100222.69;;;10.73;100.00
64967;BME280;51710;38.732;-121.358;2023-01-01T08:44:40;100229.00;;;10.72;100.00
64967;BME280;51710;38.732;-121.358;2023-01-01T08:47:08;100224.69;;;10.71;100.00
64967;BME280;51710;38.732;-121.358;2023-01-01T08:49:40;100228.69;;;10.67;100.00
64967;BME280;51710;38.732;-121.358;2023-01-01T08:52:06;100225.22;;;10.67;100.00
64967;BME280;51710;38.732;-121.358;2023-01-01T08:54:32;100224.53;;;10.65;100.00
64967;BME280;51710;38.732;-121.358;2023-01-01T08:56:59;100223.34;;;10.67;100.00
64967;BME280;51710;38.732;-121.358;2023-01-01T08:59:25;100225.03;;;10.68;100.00
64967;BME280;51710;38.732;-121.358;2023-01-01T09:01:51;100227.88;;;10.67;99.41
64967;BME280;51710;38.732;-121.358;2023-01-01T09:04:18;100230.69;;;10.65;98.60
64967;BME280;51710;38.732;-121.358;2023-01-01T09:06:44;100231.69;;;10.64;97.46
64967;BME280;51710;38.732;-121.358;2023-01-01T09:09:11;100234.88;;;10.60;97.43
64967;BME280;51710;38.732;-121.358;2023-01-01T09:11:37;100234.69;;;10.53;96.75
64967;BME280;51710;38.732;-121.358;2023-01-01T09:14:04;100223.56;;;10.50;94.56
64967;BME280;51710;38.732;-121.358;2023-01-01T09:16:30;100222.94;;;10.48;95.11
64967;BME280;51710;38.732;-121.358;2023-01-01T09:18:56;100227.75;;;10.44;94.12
64967;BME280;51710;38.732;-121.358;2023-01-01T09:21:23;100226.41;;;10.40;93.92
64967;BME280;51710;38.732;-121.358;2023-01-01T09:23:49;100230.22;;;10.38;93.90
64967;BME280;51710;38.732;-121.358;2023-01-01T09:26:15;100237.72;;;10.34;93.52
64967;BME280;51710;38.732;-121.358;2023-01-01T09:28:42;100241.88;;;10.37;92.07
64967;BME280;51710;38.732;-121.358;2023-01-01T09:31:08;100254.34;;;10.36;91.05
64967;BME280;51710;38.732;-121.358;2023-01-01T09:33:34;100250.03;;;10.35;92.36
64967;BME280;51710;38.732;-121.358;2023-01-01T09:36:23;100259.84;;;10.35;89.46
64967;BME280;51710;38.732;-121.358;2023-01-01T09:38:52;100269.16;;;10.31;91.38
64967;BME280;51710;38.732;-121.358;2023-01-01T09:44:05;100267.34;;;10.23;92.84
64967;BME280;51710;38.732;-121.358;2023-01-01T09:46:35;100267.81;;;10.18;93.10
64967;BME280;51710;38.732;-121.358;2023-01-01T09:49:31;100273.66;;;10.14;93.37
64967;BME280;51710;38.732;-121.358;2023-01-01T09:51:59;100279.31;;;10.11;94.19
64967;BME280;51710;38.732;-121.358;2023-01-01T09:54:37;100266.28;;;10.08;93.10
64967;BME280;51710;38.732;-121.358;2023-01-01T09:57:07;100269.28;;;10.05;92.57
64967;BME280;51710;38.732;-121.358;2023-01-01T09:59:36;100260.63;;;10.03;92.60
64967;BME280;51710;38.732;-121.358;2023-01-01T10:07:46;100261.63;;;9.94;91.09
64967;BME280;51710;38.732;-121.358;2023-01-01T10:16:07;100284.22;;;9.82;91.73
64967;BME280;51710;38.732;-121.358;2023-01-01T10:18:36;100284.22;;;9.82;90.85
64967;BME280;51710;38.732;-121.358;2023-01-01T10:21:16;100279.41;;;9.77;92.87
64967;BME280;51710;38.732;-121.358;2023-01-01T10:24:03;100285.84;;;9.75;94.62
64967;BME280;51710;38.732;-121.358;2023-01-01T10:26:32;100288.84;;;9.72;94.06
64967;BME280;51710;38.732;-121.358;2023-01-01T10:29:02;100296.16;;;9.70;93.94
64967;BME280;51710;38.732;-121.358;2023-01-01T10:31:35;100286.19;;;9.64;93.96
64967;BME280;51710;38.732;-121.358;2023-01-01T10:36:53;100291.44;;;9.56;95.61
64967;BME280;51710;38.732;-121.358;2023-01-01T10:39:20;100284.81;;;9.52;95.72
64967;BME280;51710;38.732;-121.358;2023-01-01T10:41:47;100284.78;;;9.44;95.50
64967;BME280;51710;38.732;-121.358;2023-01-01T10:44:29;100285.78;;;9.43;94.50
64967;BME280;51710;38.732;-121.358;2023-01-01T10:46:58;100281.59;;;9.40;93.89
64967;BME280;51710;38.732;-121.358;2023-01-01T10:49:28;100280.91;;;9.38;94.22
64967;BME280;51710;38.732;-121.358;2023-01-01T10:51:55;100284.91;;;9.34;93.66
64967;BME280;51710;38.732;-121.358;2023-01-01T10:54:38;100288.72;;;9.32;93.07
64967;BME280;51710;38.732;-121.358;2023-01-01T10:57:28;100303.28;;;9.28;93.62
64967;BME280;51710;38.732;-121.358;2023-01-01T11:00:21;100294.81;;;9.24;94.11
64967;BME280;51710;38.732;-121.358;2023-01-01T11:03:11;100301.44;;;9.20;92.89
64967;BME280;51710;38.732;-121.358;2023-01-01T11:05:39;100312.25;;;9.19;92.29
64967;BME280;51710;38.732;-121.358;2023-01-01T11:08:17;100299.94;;;9.18;91.06
64967;BME280;51710;38.732;-121.358;2023-01-01T11:10:49;100304.91;;;9.21;90.09
64967;BME280;51710;38.732;-121.358;2023-01-01T11:13:18;100307.56;;;9.21;89.39
64967;BME280;51710;38.732;-121.358;2023-01-01T11:15:45;100312.25;;;9.19;89.41
64967;BME280;51710;38.732;-121.358;2023-01-01T11:18:14;100310.41;;;9.19;88.54
64967;BME280;51710;38.732;-121.358;2023-01-01T11:20:42;100304.91;;;9.21;87.50
64967;BME280;51710;38.732;-121.358;2023-01-01T11:23:38;100306.59;;;9.22;87.44
64967;BME280;51710;38.732;-121.358;2023-01-01T11:28:34;100311.75;;;9.23;86.13
64967;BME280;51710;38.732;-121.358;2023-01-01T11:31:16;100304.63;;;9.24;86.13
64967;BME280;51710;38.732;-121.358;2023-01-01T11:33:54;100308.25;;;9.23;86.27
64967;BME280;51710;38.732;-121.358;2023-01-01T11:36:29;100312.75;;;9.22;85.19
64967;BME280;51710;38.732;-121.358;2023-01-01T11:41:43;100322.53;;;9.22;84.95
64967;BME280;51710;38.732;-121.358;2023-01-01T11:44:13;100317.56;;;9.19;84.31
64967;BME280;51710;38.732;-121.358;2023-01-01T11:46:49;100322.88;;;9.19;84.34
64967;BME280;51710;38.732;-121.358;2023-01-01T11:49:22;100326.34;;;9.19;84.10
64967;BME280;51710;38.732;-121.358;2023-01-01T11:51:49;100314.50;;;9.13;84.66
64967;BME280;51710;38.732;-121.358;2023-01-01T11:56:51;100317.16;;;9.13;82.12
64967;BME280;51710;38.732;-121.358;2023-01-01T11:59:22;100324.16;;;9.15;82.47
64967;BME280;51710;38.732;-121.358;2023-01-01T12:01:56;100317.84;;;9.16;82.20
64967;BME280;51710;38.732;-121.358;2023-01-01T12:04:43;100314.22;;;9.17;80.78
64967;BME280;51710;38.732;-121.358;2023-01-01T12:07:18;100312.53;;;9.16;80.41
64967;BME280;51710;38.732;-121.358;2023-01-01T12:12:56;100319.47;;;9.08;81.34
64967;BME280;51710;38.732;-121.358;2023-01-01T12:15:55;100322.44;;;9.05;80.88
64967;BME280;51710;38.732;-121.358;2023-01-01T12:18:53;100323.28;;;9.06;80.08
64967;BME280;51710;38.732;-121.358;2023-01-01T12:21:24;100334.06;;;9.04;79.56
64967;BME280;51710;38.732;-121.358;2023-01-01T12:23:51;100337.69;;;9.03;79.40
64967;BME280;51710;38.732;-121.358;2023-01-01T12:26:22;100345.66;;;9.03;79.17
64967;BME280;51710;38.732;-121.358;2023-01-01T12:29:28;100340.34;;;9.03;78.81
64967;BME280;51710;38.732;-121.358;2023-01-01T12:32:05;100350.16;;;9.03;78.56
64967;BME280;51710;38.732;-121.358;2023-01-01T12:34:59;100357.28;;;9.02;77.38
64967;BME280;51710;38.732;-121.358;2023-01-01T12:37:27;100353.63;;;9.03;77.84
64967;BME280;51710;38.732;-121.358;2023-01-01T12:43:01;100356.13;;;9.05;77.29
64967;BME280;51710;38.732;-121.358;2023-01-01T12:51:57;100380.84;;;8.97;76.87
64967;BME280;51710;38.732;-121.358;2023-01-01T12:57:25;100376.50;;;8.96;76.49
64967;BME280;51710;38.732;-121.358;2023-01-01T12:59:55;100379.16;;;8.96;76.49
64967;BME280;51710;38.732;-121.358;2023-01-01T13:02:24;100391.81;;;9.02;75.63
64967;BME280;51710;38.732;-121.358;2023-01-01T13:04:56;100388.47;;;9.00;76.23
64967;BME280;51710;38.732;-121.358;2023-01-01T13:07:32;100396.09;;;8.95;76.36
64967;BME280;51710;38.732;-121.358;2023-01-01T13:10:30;100396.41;;;8.92;76.60
64967;BME280;51710;38.732;-121.358;2023-01-01T13:12:59;100406.34;;;8.90;76.89
64967;BME280;51710;38.732;-121.358;2023-01-01T13:18:20;100405.72;;;8.79;77.26
64967;BME280;51710;38.732;-121.358;2023-01-01T13:21:01;100408.22;;;8.80;76.61
64967;BME280;51710;38.732;-121.358;2023-01-01T13:42:44;100435.41;;;8.74;75.87
64967;BME280;51710;38.732;-121.358;2023-01-01T13:45:31;100430.69;;;8.68;76.30
64967;BME280;51710;38.732;-121.358;2023-01-01T13:48:24;100430.16;;;8.65;76.18
64967;BME280;51710;38.732;-121.358;2023-01-01T13:55:57;100428.81;;;8.61;76.33
64967;BME280;51710;38.732;-121.358;2023-01-01T13:58:34;100437.06;;;8.58;76.25
64967;BME280;51710;38.732;-121.358;2023-01-01T14:01:36;100435.25;;;8.58;76.01
64967;BME280;51710;38.732;-121.358;2023-01-01T14:04:13;100441.84;;;8.54;76.12
64967;BME280;51710;38.732;-121.358;2023-01-01T14:06:46;100455.09;;;8.54;75.64
64967;BME280;51710;38.732;-121.358;2023-01-01T14:09:18;100448.13;;;8.53;75.60
64967;BME280;51710;38.732;-121.358;2023-01-01T14:11:45;100450.25;;;8.50;75.92
64967;BME280;51710;38.732;-121.358;2023-01-01T14:16:54;100450.72;;;8.45;76.29
64967;BME280;51710;38.732;-121.358;2023-01-01T14:19:23;100448.50;;;8.41;76.28
64967;BME280;51710;38.732;-121.358;2023-01-01T14:21:50;100448.50;;;8.41;76.38
64967;BME280;51710;38.732;-121.358;2023-01-01T14:24:19;100446.84;;;8.40;76.01
64967;BME280;51710;38.732;-121.358;2023-01-01T14:26:46;100451.31;;;8.39;75.50
64967;BME280;51710;38.732;-121.358;2023-01-01T14:29:39;100448.50;;;8.41;75.21